AirNav   Bose Proflight and A20 aviation headeets
 
 735 users online  

AL92 Hawk Field Airport
Harpersville, Alabama, USA

GOING TO HARPERSVILLE?


FAA INFORMATION EFFECTIVE 31 JANUARY 2019

Location

FAA Identifier: AL92
Lat/Long: 33-18-26.4020N / 086-24-12.9230W
33-18.440033N / 086-24.215383W
33.3073339 / -86.4035897
(estimated)
Elevation: 420 ft. / 128 m (estimated)
Variation: 01W (1990)
From city: 2 miles S of HARPERSVILLE, AL
Time zone: UTC -6 (UTC -5 during Daylight Saving Time)
Zip code: 35078

Airport Operations

Airport use: Private use. Permission required prior to landing
Activation date: 10/1991
Control tower: no
ARTCC: ATLANTA CENTER
FSS: ANNISTON FLIGHT SERVICE STATION
Attendance: UNATNDD
Wind indicator: yes
Segmented circle: no

Airport Communications

WX AWOS-3PT at SCD (10 nm SE): 119.125 (256-249-2620)
WX AWOS-3P at PLR (17 nm NE): 119.625 ((205) 884-4359)

Nearby radio navigation aids

VOR radial/distance  VOR name  Freq  Var
TDGr226/24.2TALLADEGA VOR/DME108.8002E
VUZr129/33.0VULCAN VORTAC114.4002E

Airport Services

Runway Information

Runway 11/29

Dimensions: 3400 x 75 ft. / 1036 x 23 m
Surface: turf
RUNWAY 11  RUNWAY 29
Traffic pattern: leftleft

Airport Ownership and Management from official FAA records

Ownership: Privately-owned
Owner: WILLIAM G GAYLE
392 SUN VALLEY ROAD
HARPERSVILLE, AL 35078
Phone 205-672-3103
Manager: WILLIAM G GAYLE
392 SUN VALLEY ROAD
HARPERSVILLE, AL 35078
Phone 205-672-3103

Airport Operational Statistics

Aircraft based on the field: 2
Single engine airplanes: 2
    

Instrument Procedures

There are no published instrument procedures at AL92.

Some nearby airports with instrument procedures:

KSCD - Merkel Field Sylacauga Municipal Airport (10 nm SE)
KPLR - St Clair County Airport (17 nm NE)
KEET - Shelby County Airport (21 nm W)
KBHM - Birmingham-Shuttlesworth International Airport (23 nm NW)
KASN - Talladega Municipal Airport (24 nm NE)
 
Loc | Ops | Rwys | IFR | FBO | Links
Com | Nav | Svcs | Stats | Notes
Area around AL92 (Hawk Field Airport)
 
Road maps at: MapQuest Bing Google
 
Aerial photo
No photo
 
Sectional chart

 
Airport distance calculator
Flying to Hawk Field Airport? Find the distance to fly.

From to AL92

Sunrise and sunset
Times for 15-Feb-2019
 Local
(UTC-6)
 Zulu
(UTC)
Morning civil twilight06:0512:05
Sunrise06:3012:30
Sunset17:2923:29
Evening civil twilight17:5523:55

Current date and time
Zulu (UTC)  16-Feb-2019 03:37:23
Local (UTC-6)  15-Feb-2019 21:37:23
 
METAR
KSCD 
10nm SE 
160315Z AUTO 23007KT 10SM BKN010 OVC015 16/16 A2980 RMK AO2 T01600157
KPLR 
17nm NE 
160315Z AUTO 19006KT 8SM BKN006 OVC010 16/16 A2978 RMK A01
TAF
KEET 
20nm W 
160211Z 1602/1624 19005KT P6SM -RA OVC005 TEMPO 1602/1605 3SM -RA BR FM160500 19006KT 3SM -RA BR OVC004 FM160800 28007KT 5SM -RA BR OVC004 FM161400 33006KT P6SM VCSH OVC012 FM161800 35007KT P6SM VCSH BKN025
KBHM 
23nm NW 
152130Z 1522/1618 20006KT P6SM VCSH OVC016 TEMPO 1522/1602 3SM -RA BR BKN012 FM160300 24006KT 6SM BR VCSH OVC008 FM161300 33006KT P6SM OVC012
KASN 
24nm NE 
151730Z 1518/1618 24008KT P6SM VCSH OVC010 FM160300 22007KT 5SM -SHRA BR OVC008 FM161400 30006KT P6SM OVC014
NOTAMs
Click for the latest NOTAMs
NOTAMs are issued by the DoD/FAA and will open in a separate window not controlled by AirNav.

 

 
 

Would you like to see your business listed on this page?

 If your business provides an interesting product or service to pilots, flight crews, aircraft, or users of the Hawk Field Airport, you should consider listing it here.  To start the listing process, click on the button below
 
Add a business
 

Other Pages about Hawk Field Airport

Update a link
 
Copyright © AirNav, LLC. All rights reserved. Privacy Policy  Contact